Comet, North Carolina
Current Conditions -  °F | °C
As of 6:55 PM on Sunday 25 Jan 2015 (Local Time) from KGEV Reporting Station
Broken Clouds Broken Clouds  
Wind Chill: 40°   Ceiling: 7000
Heat Index: 40°   Visibility: 10mi
Dew Point: 26°   Wind: 0mph
Humidity: 57%   Direction: NA
Pressure: 29.73"   Gusts: NA
Location:  36.524°N, 81.538°W
Report Text: KGEV 252355Z AUTO 00000KT 10SM BKN070 04/M03 A2973 RMK AO2 T00441035 10088 20042
Loading
Personal Weather Stations






























Interactive Weather Map New forecast layout! Learn more

10-Day Weather Forecast

Advertisements
Track Severe Weather on mobile